createdAt,value
2018-06-16T00:01:57.230Z,98784.77
2018-06-16T00:04:26.731Z,98789.78
2018-06-16T00:06:55.780Z,98784.44
2018-06-16T00:09:36.596Z,98781.81
2018-06-16T00:14:58.955Z,98778.52
2018-06-16T00:17:29.428Z,98774.84
2018-06-16T00:19:58.741Z,98778.86
2018-06-16T00:22:27.894Z,98783.19
2018-06-16T00:25:00.934Z,98782.31
2018-06-16T00:27:30.663Z,98779.48
2018-06-16T00:29:59.633Z,98777.59
2018-06-16T00:32:28.758Z,98779.48
2018-06-16T00:34:57.719Z,98780.82
2018-06-16T00:37:26.996Z,98782.84
2018-06-16T00:39:56.135Z,98782.34
2018-06-16T00:42:25.153Z,98782.69
2018-06-16T00:44:54.307Z,98779.85
2018-06-16T00:47:23.457Z,98773.00
2018-06-16T00:49:52.554Z,98774.66
2018-06-16T00:52:21.630Z,98774.45
2018-06-16T00:54:50.766Z,98779.39
2018-06-16T00:57:30.731Z,98779.95
2018-06-16T00:59:59.681Z,98776.06
2018-06-16T01:02:28.953Z,98779.73
2018-06-16T01:04:58.266Z,98777.98
2018-06-16T01:07:27.457Z,98781.35
2018-06-16T01:09:56.552Z,98778.52
2018-06-16T01:12:25.544Z,98772.34
2018-06-16T01:14:54.756Z,98775.41
2018-06-16T01:17:27.528Z,98771.28
2018-06-16T01:19:58.153Z,98773.23
2018-06-16T01:22:27.267Z,98779.34
2018-06-16T01:24:56.348Z,98770.44
2018-06-16T01:27:25.407Z,98776.66
2018-06-16T01:29:54.631Z,98784.98
2018-06-16T01:32:23.688Z,98777.53
2018-06-16T01:34:52.816Z,98781.48
2018-06-16T01:37:21.815Z,98783.81
2018-06-16T01:39:50.987Z,98780.38
2018-06-16T01:42:20.073Z,98789.92
2018-06-16T01:44:49.100Z,98796.70
2018-06-16T01:47:18.289Z,98796.62
2018-06-16T01:49:47.339Z,98798.94
2018-06-16T01:52:16.417Z,98792.52
2018-06-16T01:54:45.399Z,98802.55
2018-06-16T01:57:14.441Z,98804.58
2018-06-16T01:59:43.451Z,98807.64
2018-06-16T02:02:12.579Z,98800.70
2018-06-16T02:04:41.773Z,98805.36
2018-06-16T02:07:10.718Z,98801.56
2018-06-16T02:09:39.710Z,98796.52
2018-06-16T02:12:08.767Z,98794.89
2018-06-16T02:14:37.834Z,98785.45
2018-06-16T02:17:06.988Z,98787.59
2018-06-16T02:19:36.097Z,98787.09
2018-06-16T02:22:05.108Z,98790.53
2018-06-16T02:24:34.165Z,98794.80
2018-06-16T02:27:03.371Z,98794.75
2018-06-16T02:29:32.476Z,98791.08
2018-06-16T02:32:01.512Z,98789.54
2018-06-16T02:34:30.573Z,98788.35
2018-06-16T02:36:59.739Z,98789.05
2018-06-16T02:39:28.853Z,98792.27
2018-06-16T02:41:57.907Z,98795.17
2018-06-16T02:44:26.916Z,98804.27
2018-06-16T02:46:56.060Z,98807.88
2018-06-16T02:49:25.135Z,98808.72
2018-06-16T02:51:54.210Z,98807.19
2018-06-16T02:54:23.516Z,98806.00
2018-06-16T02:56:52.604Z,98798.59
2018-06-16T02:59:21.675Z,98803.09
2018-06-16T03:01:50.770Z,98804.92
2018-06-16T03:04:19.862Z,98811.41
2018-06-16T03:06:48.956Z,98812.94
2018-06-16T03:09:18.566Z,98817.08
2018-06-16T03:11:47.520Z,98815.23
2018-06-16T03:14:16.689Z,98815.27
2018-06-16T03:16:45.949Z,98820.89
2018-06-16T03:19:14.961Z,98820.37
2018-06-16T03:21:43.906Z,98825.58
2018-06-16T03:24:13.062Z,98833.56
2018-06-16T03:26:42.078Z,98835.52
2018-06-16T03:29:11.159Z,98832.18
2018-06-16T03:31:40.299Z,98830.95
2018-06-16T03:34:09.368Z,98834.34
2018-06-16T03:36:38.466Z,98833.77
2018-06-16T03:39:08.552Z,98831.75
2018-06-16T03:41:37.593Z,98837.36
2018-06-16T03:44:06.613Z,98835.77
2018-06-16T03:46:35.790Z,98833.22
2018-06-16T03:49:04.740Z,98838.00
2018-06-16T03:51:33.853Z,98844.49
2018-06-16T03:54:02.957Z,98841.45
2018-06-16T03:56:32.115Z,98843.63
2018-06-16T03:59:01.211Z,98835.75
2018-06-16T04:01:30.344Z,98832.55
2018-06-16T04:03:59.263Z,98835.30
2018-06-16T04:06:28.498Z,98828.53
2018-06-16T04:08:57.457Z,98843.47
2018-06-16T04:11:26.660Z,98844.42
2018-06-16T04:13:55.616Z,98848.04
2018-06-16T04:16:24.514Z,98849.04
2018-06-16T04:18:53.618Z,98846.06
2018-06-16T04:21:22.767Z,98846.70
2018-06-16T04:23:51.898Z,98848.49
2018-06-16T04:26:20.851Z,98843.70
2018-06-16T04:28:49.844Z,98848.45
2018-06-16T04:31:18.976Z,98850.66
2018-06-16T04:33:48.028Z,98851.56
2018-06-16T04:36:17.014Z,98849.94
2018-06-16T04:38:46.154Z,98855.99
2018-06-16T04:41:15.343Z,98860.08
2018-06-16T04:43:44.406Z,98858.33
2018-06-16T04:46:13.658Z,98857.70
2018-06-16T04:48:42.811Z,98854.16
2018-06-16T04:51:12.006Z,98854.86
2018-06-16T04:53:41.015Z,98850.59
2018-06-16T04:56:10.174Z,98854.34
2018-06-16T04:58:39.120Z,98846.95
2018-06-16T05:01:08.352Z,98846.62
2018-06-16T05:03:37.485Z,98841.92
2018-06-16T05:06:06.658Z,98851.66
2018-06-16T05:08:35.822Z,98858.55
2018-06-16T05:11:04.942Z,98860.05
2018-06-16T05:13:34.509Z,98859.05
2018-06-16T05:16:03.731Z,98857.73
2018-06-16T05:18:32.766Z,98857.64
2018-06-16T05:21:01.984Z,98863.58
2018-06-16T05:23:31.090Z,98857.48
2018-06-16T05:26:00.144Z,98858.33
2018-06-16T05:28:29.259Z,98858.00
2018-06-16T05:30:58.636Z,98853.05
2018-06-16T05:33:27.678Z,98854.78
2018-06-16T05:35:56.923Z,98856.13
2018-06-16T05:38:25.972Z,98857.09
2018-06-16T05:40:55.112Z,98842.45
2018-06-16T05:43:24.283Z,98844.58
2018-06-16T05:45:53.574Z,98844.34
2018-06-16T05:48:22.712Z,98853.55
2018-06-16T05:50:51.814Z,98850.23
2018-06-16T05:53:21.007Z,98854.89
2018-06-16T05:57:19.355Z,98868.02
2018-06-16T05:59:48.617Z,98861.78
2018-06-16T06:02:17.705Z,98859.83
2018-06-16T06:04:46.646Z,98863.42
2018-06-16T06:07:15.975Z,98855.88
2018-06-16T06:09:46.270Z,98849.80
2018-06-16T06:12:15.321Z,98834.34
2018-06-16T06:14:44.364Z,98821.50
2018-06-16T06:17:13.472Z,98829.02
2018-06-16T06:19:42.612Z,98838.70
2018-06-16T06:22:11.668Z,98845.30
2018-06-16T06:24:40.824Z,98841.51
2018-06-16T06:27:10.032Z,98846.02
2018-06-16T06:29:39.040Z,98853.80
2018-06-16T06:32:08.175Z,98833.94
2018-06-16T06:34:37.157Z,98832.83
2018-06-16T06:37:06.265Z,98834.53
2018-06-16T06:39:35.286Z,98844.06
2018-06-16T06:42:04.385Z,98832.28
2018-06-16T06:44:33.490Z,98837.52
2018-06-16T06:47:02.640Z,98839.53
2018-06-16T06:49:32.047Z,98835.05
2018-06-16T06:52:01.257Z,98840.53
2018-06-16T06:54:30.629Z,98839.21
2018-06-16T06:56:59.771Z,98837.08
2018-06-16T06:59:28.806Z,98832.84
2018-06-16T07:01:57.983Z,98824.61
2018-06-16T07:04:27.132Z,98822.61
2018-06-16T07:06:57.379Z,98817.50
2018-06-16T07:09:26.584Z,98821.94
2018-06-16T07:11:59.825Z,98828.38
2018-06-16T07:14:28.904Z,98837.67
2018-06-16T07:16:58.308Z,98838.95
2018-06-16T07:19:27.341Z,98843.92
2018-06-16T07:21:56.419Z,98837.60
2018-06-16T07:24:25.403Z,98842.50
2018-06-16T07:26:54.585Z,98837.42
2018-06-16T07:29:23.798Z,98835.53
2018-06-16T07:31:54.568Z,98837.59
2018-06-16T07:34:23.623Z,98833.13
2018-06-16T07:36:52.715Z,98825.61
2018-06-16T07:39:21.840Z,98821.65
2018-06-16T07:41:51.051Z,98822.47
2018-06-16T07:44:20.040Z,98823.77
2018-06-16T07:46:49.166Z,98819.81
2018-06-16T07:49:18.319Z,98814.39
2018-06-16T07:51:47.344Z,98816.73
2018-06-16T07:54:16.405Z,98804.91
2018-06-16T07:56:45.599Z,98803.17
2018-06-16T07:59:14.565Z,98806.13
2018-06-16T08:01:43.705Z,98814.48
2018-06-16T08:04:12.778Z,98816.92
2018-06-16T08:06:41.811Z,98814.82
2018-06-16T08:09:11.731Z,98818.14
2018-06-16T08:11:40.968Z,98805.63
2018-06-16T08:14:09.972Z,98811.92
2018-06-16T08:16:39.045Z,98822.80
2018-06-16T08:19:08.261Z,98818.69
2018-06-16T08:21:37.263Z,98822.03
2018-06-16T08:24:06.373Z,98821.56
2018-06-16T08:26:35.492Z,98813.22
2018-06-16T08:29:04.493Z,98809.52
2018-06-16T08:31:33.624Z,98804.85
2018-06-16T08:34:02.819Z,98807.89
2018-06-16T08:36:31.698Z,98811.09
2018-06-16T08:39:01.713Z,98811.30
2018-06-16T08:41:30.980Z,98802.16
2018-06-16T08:44:00.284Z,98800.58
2018-06-16T08:46:29.448Z,98793.98
2018-06-16T08:48:59.129Z,98784.29
2018-06-16T08:51:28.255Z,98786.60
2018-06-16T08:53:57.231Z,98783.05
2018-06-16T08:56:26.441Z,98781.83
2018-06-16T08:58:55.597Z,98787.77
2018-06-16T09:01:24.715Z,98790.34
2018-06-16T09:03:53.904Z,98781.01
2018-06-16T09:06:22.962Z,98780.55
2018-06-16T09:08:52.078Z,98786.00
2018-06-16T09:11:21.198Z,98787.38
2018-06-16T09:13:50.265Z,98784.55
2018-06-16T09:16:19.385Z,98789.23
2018-06-16T09:18:48.514Z,98787.41
2018-06-16T09:21:17.560Z,98785.14
2018-06-16T09:23:46.758Z,98789.77
2018-06-16T09:26:15.953Z,98794.36
2018-06-16T09:28:45.052Z,98791.86
2018-06-16T09:31:14.147Z,98787.63
2018-06-16T09:33:43.852Z,98789.75
2018-06-16T09:36:13.045Z,98787.74
2018-06-16T09:38:42.918Z,98793.47
2018-06-16T09:41:12.058Z,98782.13
2018-06-16T09:43:41.253Z,98788.11
2018-06-16T09:46:10.267Z,98781.24
2018-06-16T09:48:39.423Z,98778.66
2018-06-16T09:51:08.464Z,98775.75
2018-06-16T09:53:37.542Z,98778.91
2018-06-16T09:56:06.660Z,98793.78
2018-06-16T09:58:36.587Z,98794.61
2018-06-16T10:01:05.708Z,98803.67
2018-06-16T10:03:34.834Z,98805.72
2018-06-16T10:06:04.022Z,98811.86
2018-06-16T10:08:33.172Z,98807.02
2018-06-16T10:11:02.238Z,98807.66
2018-06-16T10:13:31.365Z,98800.92
2018-06-16T10:16:00.411Z,98799.53
2018-06-16T10:18:29.559Z,98800.75
2018-06-16T10:20:58.649Z,98805.58
2018-06-16T10:23:27.651Z,98815.15
2018-06-16T10:25:57.591Z,98818.63
2018-06-16T10:28:26.731Z,98817.23
2018-06-16T10:30:55.847Z,98808.34
2018-06-16T10:33:24.937Z,98811.48
2018-06-16T10:35:54.058Z,98812.43
2018-06-16T10:38:23.112Z,98810.27
2018-06-16T10:40:52.161Z,98813.75
2018-06-16T10:43:21.308Z,98811.63
2018-06-16T10:45:50.431Z,98821.98
2018-06-16T10:48:19.407Z,98823.93
2018-06-16T10:50:48.576Z,98824.45
2018-06-16T10:53:17.784Z,98819.48
2018-06-16T10:55:47.001Z,98826.38
2018-06-16T10:58:16.176Z,98820.16
2018-06-16T11:00:46.163Z,98824.66
2018-06-16T11:03:15.318Z,98821.82
2018-06-16T11:05:44.418Z,98826.06
2018-06-16T11:08:13.562Z,98823.84
2018-06-16T11:10:42.557Z,98824.54
2018-06-16T11:13:11.862Z,98828.26
2018-06-16T11:15:40.994Z,98848.97
2018-06-16T11:18:10.168Z,98856.22
2018-06-16T11:20:39.278Z,98859.10
2018-06-16T11:23:08.464Z,98892.02
2018-06-16T11:25:37.445Z,98872.66
2018-06-16T11:28:06.880Z,98876.20
2018-06-16T11:30:40.616Z,98878.22
2018-06-16T11:33:10.975Z,98881.56
2018-06-16T11:35:46.750Z,98883.08
2018-06-16T11:38:15.891Z,98869.47
2018-06-16T11:40:46.060Z,98873.16
2018-06-16T11:43:15.314Z,98861.25
2018-06-16T11:45:44.481Z,98858.89
2018-06-16T11:48:17.822Z,98853.36
2018-06-16T11:50:46.819Z,98864.10
2018-06-16T11:53:16.113Z,98862.23
2018-06-16T11:55:45.288Z,98853.34
2018-06-16T11:58:15.647Z,98859.73
2018-06-16T12:04:03.126Z,98844.36
2018-06-16T12:06:49.259Z,98828.92
2018-06-16T12:09:23.690Z,98821.95
2018-06-16T12:11:53.048Z,98821.95
2018-06-16T12:14:22.373Z,98826.91
2018-06-16T12:16:51.952Z,98837.42
2018-06-16T12:19:21.096Z,98837.89
2018-06-16T12:21:50.129Z,98835.13
2018-06-16T12:24:19.255Z,98837.23
2018-06-16T12:26:48.407Z,98831.97
2018-06-16T12:29:17.968Z,98834.19
2018-06-16T12:31:47.142Z,98842.50
2018-06-16T12:34:16.242Z,98856.14
2018-06-16T12:36:48.141Z,98870.29
2018-06-16T12:39:17.258Z,98885.84
2018-06-16T12:41:46.366Z,98886.64
2018-06-16T12:44:15.808Z,98906.15
2018-06-16T12:46:45.221Z,98916.39
2018-06-16T12:49:14.293Z,98910.94
2018-06-16T12:54:36.054Z,98930.23
2018-06-16T12:57:05.255Z,98928.81
2018-06-16T12:59:34.436Z,98944.91
2018-06-16T13:02:03.821Z,98922.89
2018-06-16T13:04:36.220Z,98920.23
2018-06-16T13:07:15.757Z,98922.94
2018-06-16T13:09:46.613Z,98937.05
2018-06-16T13:12:45.417Z,98912.70
2018-06-16T13:16:04.648Z,98908.80
2018-06-16T13:20:03.403Z,98908.56
2018-06-16T13:22:32.640Z,98894.63
2018-06-16T13:25:01.918Z,98886.69
2018-06-16T13:27:31.189Z,98889.60
2018-06-16T13:30:00.494Z,98875.95
2018-06-16T13:32:29.787Z,98872.04
2018-06-16T13:34:59.137Z,98861.89
2018-06-16T13:37:28.333Z,98849.78
2018-06-16T13:39:57.487Z,98842.14
2018-06-16T13:42:26.826Z,98838.68
2018-06-16T13:44:56.126Z,98836.67
2018-06-16T13:47:25.292Z,98837.59
2018-06-16T13:49:54.432Z,98840.33
2018-06-16T13:52:23.535Z,98833.48
2018-06-16T13:54:52.830Z,98848.89
2018-06-16T13:57:21.984Z,98840.94
2018-06-16T13:59:51.236Z,98833.48
2018-06-16T14:02:24.326Z,98827.14
2018-06-16T14:04:56.756Z,98831.30
2018-06-16T14:07:26.115Z,98825.93
2018-06-16T14:09:55.872Z,98828.70
2018-06-16T14:12:27.392Z,98818.31
2018-06-16T14:14:56.604Z,98806.53
2018-06-16T14:17:25.803Z,98807.41
2018-06-16T14:19:54.889Z,98808.17
2018-06-16T14:22:23.914Z,98811.73
2018-06-16T14:24:53.202Z,98811.60
2018-06-16T14:27:22.587Z,98812.81
2018-06-16T14:29:51.490Z,98814.95
2018-06-16T14:32:20.788Z,98819.39
2018-06-16T14:34:50.029Z,98823.05
2018-06-16T14:37:18.961Z,98826.19
2018-06-16T14:39:47.940Z,98823.45
2018-06-16T14:42:17.079Z,98817.50
2018-06-16T14:44:46.136Z,98814.83
2018-06-16T14:47:15.248Z,98819.39
2018-06-16T14:49:44.385Z,98823.18
2018-06-16T14:52:13.436Z,98819.99
2018-06-16T14:54:42.605Z,98812.55
2018-06-16T14:57:11.549Z,98809.73
2018-06-16T14:59:40.654Z,98813.18
2018-06-16T15:02:09.722Z,98821.78
2018-06-16T15:04:38.926Z,98821.41
2018-06-16T15:07:07.961Z,98815.67
2018-06-16T15:09:37.112Z,98820.31
2018-06-16T15:12:06.308Z,98812.59
2018-06-16T15:14:35.490Z,98802.22
2018-06-16T15:17:04.504Z,98795.47
2018-06-16T15:19:34.332Z,98797.68
2018-06-16T15:22:03.435Z,98792.30
2018-06-16T15:24:32.530Z,98792.32
2018-06-16T15:27:02.599Z,98780.19
2018-06-16T15:29:31.638Z,98775.40
2018-06-16T15:32:00.777Z,98777.06
2018-06-16T15:34:30.135Z,98769.57
2018-06-16T15:36:59.089Z,98769.52
2018-06-16T15:39:28.220Z,98769.23
2018-06-16T15:41:57.387Z,98769.41
2018-06-16T15:44:26.431Z,98778.22
2018-06-16T15:46:55.826Z,98779.38
2018-06-16T15:49:24.786Z,98787.16
2018-06-16T15:51:53.868Z,98790.38
2018-06-16T15:54:23.031Z,98796.14
2018-06-16T15:56:52.041Z,98791.96
2018-06-16T15:59:21.203Z,98784.95
2018-06-16T16:01:50.239Z,98778.55
2018-06-16T16:04:19.858Z,98772.27
2018-06-16T16:06:48.775Z,98767.63
2018-06-16T16:09:18.024Z,98771.48
2018-06-16T16:11:47.295Z,98776.77
2018-06-16T16:14:16.342Z,98778.31
2018-06-16T16:16:45.417Z,98773.63
2018-06-16T16:19:20.361Z,98774.31
2018-06-16T16:21:49.256Z,98771.67
2018-06-16T16:24:19.086Z,98768.78
2018-06-16T16:26:48.503Z,98764.48
2018-06-16T16:29:17.697Z,98759.95
2018-06-16T16:31:46.643Z,98767.23
2018-06-16T16:34:15.668Z,98755.77
2018-06-16T16:36:44.591Z,98763.33
2018-06-16T16:39:13.625Z,98764.19
2018-06-16T16:41:43.013Z,98770.95
2018-06-16T16:44:11.974Z,98773.42
2018-06-16T16:46:40.992Z,98781.02
2018-06-16T16:49:10.305Z,98774.37
2018-06-16T16:51:39.207Z,98774.97
2018-06-16T16:54:08.131Z,98783.77
2018-06-16T16:56:37.545Z,98784.68
2018-06-16T16:59:06.619Z,98794.27
2018-06-16T17:01:35.519Z,98801.09
2018-06-16T17:04:05.646Z,98810.32
2018-06-16T17:06:34.577Z,98816.05
2018-06-16T17:09:05.464Z,98820.85
2018-06-16T17:11:34.412Z,98826.18
2018-06-16T17:14:03.414Z,98836.23
2018-06-16T17:16:32.423Z,98841.70
2018-06-16T17:19:01.324Z,98851.27
2018-06-16T17:21:30.345Z,98858.05
2018-06-16T17:23:59.437Z,98866.55
2018-06-16T17:26:28.325Z,98864.91
2018-06-16T17:28:57.284Z,98867.32
2018-06-16T17:31:26.639Z,98865.20
2018-06-16T17:33:55.521Z,98865.61
2018-06-16T17:36:24.503Z,98868.56
2018-06-16T17:38:53.766Z,98871.16
2018-06-16T17:41:22.709Z,98873.49
2018-06-16T17:43:52.374Z,98876.00
2018-06-16T17:46:21.671Z,98880.73
2018-06-16T17:48:50.718Z,98876.44
2018-06-16T17:51:19.707Z,98876.38
2018-06-16T17:53:49.362Z,98878.47
2018-06-16T17:56:18.365Z,98877.55
2018-06-16T17:58:47.306Z,98884.67
2018-06-16T18:02:19.090Z,98887.42
2018-06-16T18:04:48.010Z,98893.38
2018-06-16T18:07:17.016Z,98894.63
2018-06-16T18:09:46.076Z,98892.62
2018-06-16T18:12:15.044Z,98900.09
2018-06-16T18:14:44.952Z,98895.58
2018-06-16T18:17:14.471Z,98899.83
2018-06-16T18:19:43.442Z,98897.50
2018-06-16T18:22:12.335Z,98908.48
2018-06-16T18:24:41.314Z,98908.63
2018-06-16T18:27:10.173Z,98908.84
2018-06-16T18:29:39.149Z,98914.05
2018-06-16T18:32:08.635Z,98918.28
2018-06-16T18:34:37.552Z,98913.08
2018-06-16T18:37:06.437Z,98908.02
2018-06-16T18:39:35.906Z,98906.02
2018-06-16T18:42:04.896Z,98905.70
2018-06-16T18:44:33.888Z,98901.52
2018-06-16T18:47:02.891Z,98912.63
2018-06-16T18:49:31.792Z,98913.81
2018-06-16T18:52:00.748Z,98910.15
2018-06-16T18:54:29.713Z,98910.48
2018-06-16T18:56:59.729Z,98918.56
2018-06-16T18:59:28.692Z,98916.88
2018-06-16T19:01:58.120Z,98918.91
2018-06-16T19:04:27.654Z,98915.72
2018-06-16T19:06:56.595Z,98916.21
2018-06-16T19:09:25.672Z,98924.28
2018-06-16T19:11:54.665Z,98921.42
2018-06-16T19:14:23.618Z,98916.18
2018-06-16T19:16:53.093Z,98919.91
2018-06-16T19:19:22.015Z,98919.72
2018-06-16T19:21:51.017Z,98929.28
2018-06-16T19:24:20.601Z,98933.48
2018-06-16T19:26:49.577Z,98930.31
2018-06-16T19:29:18.583Z,98925.43
2018-06-16T19:31:47.589Z,98929.81
2018-06-16T19:34:16.472Z,98928.97
2018-06-16T19:36:45.401Z,98938.22
2018-06-16T19:39:14.408Z,98934.68
2018-06-16T19:41:43.293Z,98933.99
2018-06-16T19:45:15.585Z,98934.34
2018-06-16T19:47:44.568Z,98944.59
2018-06-16T19:50:13.605Z,98952.81
2018-06-16T19:52:42.724Z,98954.84
2018-06-16T19:55:11.739Z,98958.06
2018-06-16T19:57:40.779Z,98959.23
2018-06-16T20:00:09.820Z,98957.89
2018-06-16T20:02:38.792Z,98961.77
2018-06-16T20:05:07.841Z,98954.17
2018-06-16T20:07:37.011Z,98955.00
2018-06-16T20:10:06.077Z,98961.72
2018-06-16T20:12:35.073Z,98965.08
2018-06-16T20:15:04.499Z,98966.27
2018-06-16T20:17:33.464Z,98967.29
2018-06-16T20:20:02.403Z,98967.81
2018-06-16T20:22:31.959Z,98967.98
2018-06-16T20:25:00.809Z,98964.41
2018-06-16T20:27:29.795Z,98957.52
2018-06-16T20:29:59.046Z,98959.38
2018-06-16T20:32:28.121Z,98957.17
2018-06-16T20:34:57.101Z,98959.86
2018-06-16T20:37:26.505Z,98950.63
2018-06-16T20:39:55.593Z,98950.94
2018-06-16T20:42:24.618Z,98947.08
2018-06-16T20:44:54.196Z,98952.28
2018-06-16T20:47:23.569Z,98952.26
2018-06-16T20:49:54.025Z,98961.33
2018-06-16T20:52:22.987Z,98960.47
2018-06-16T20:54:52.152Z,98956.44
2018-06-16T20:57:21.270Z,98961.47
2018-06-16T20:59:50.290Z,98962.11
2018-06-16T21:02:19.320Z,98966.78
2018-06-16T21:04:48.825Z,98968.28
2018-06-16T21:07:17.771Z,98967.87
2018-06-16T21:09:47.055Z,98971.34
2018-06-16T21:12:16.190Z,98972.69
2018-06-16T21:14:45.329Z,98967.27
2018-06-16T21:17:14.282Z,98973.98
2018-06-16T21:19:43.289Z,98970.63
2018-06-16T21:22:12.347Z,98966.27
2018-06-16T21:24:41.753Z,98965.37
2018-06-16T21:30:15.299Z,98969.67
2018-06-16T21:32:45.025Z,98968.81
2018-06-16T21:35:14.098Z,98960.39
2018-06-16T21:37:43.384Z,98952.05
2018-06-16T21:40:12.635Z,98946.70
2018-06-16T21:42:44.353Z,98942.00
2018-06-16T21:45:14.764Z,98939.36
2018-06-16T21:47:46.601Z,98939.02
2018-06-16T21:50:22.344Z,98940.37
2018-06-16T21:52:53.229Z,98937.84
2018-06-16T21:55:24.361Z,98936.64
2018-06-16T21:57:55.187Z,98941.33
2018-06-16T22:00:35.772Z,98942.33
2018-06-16T22:03:18.325Z,98942.82
2018-06-16T22:05:50.190Z,98938.06
2018-06-16T22:08:25.729Z,98932.14
2018-06-16T22:10:58.478Z,98931.28
2018-06-16T22:13:29.649Z,98927.37
2018-06-16T22:15:58.993Z,98924.02
2018-06-16T22:18:32.523Z,98930.30
2018-06-16T22:21:01.937Z,98934.31
2018-06-16T22:23:31.353Z,98926.37
2018-06-16T22:26:42.774Z,98930.05
2018-06-16T22:29:12.214Z,98934.39
2018-06-16T22:31:41.809Z,98937.36
2018-06-16T22:34:11.773Z,98931.81
2018-06-16T22:36:41.123Z,98930.80
2018-06-16T22:39:22.011Z,98932.58
2018-06-16T22:48:31.403Z,98916.91
2018-06-16T22:51:08.110Z,98915.04
2018-06-16T22:54:18.094Z,98920.84
2018-06-16T22:56:47.259Z,98930.70
2018-06-16T22:59:16.413Z,98929.67
2018-06-16T23:01:46.481Z,98939.48
2018-06-16T23:04:17.170Z,98943.98
2018-06-16T23:06:46.404Z,98946.47
2018-06-16T23:09:15.606Z,98953.04
2018-06-16T23:11:44.862Z,98950.17
2018-06-16T23:14:14.404Z,98953.53
2018-06-16T23:16:43.923Z,98953.72
2018-06-16T23:19:13.192Z,98955.56
2018-06-16T23:21:42.421Z,98960.92
2018-06-16T23:24:15.382Z,98960.48
2018-06-16T23:26:44.705Z,98968.05
2018-06-16T23:29:14.039Z,98967.89
2018-06-16T23:31:43.602Z,98968.45
2018-06-16T23:34:13.926Z,98963.59
2018-06-16T23:36:43.312Z,98962.45
2018-06-16T23:39:13.772Z,98957.89
2018-06-16T23:41:44.091Z,98960.06
2018-06-16T23:49:17.260Z,98966.30
2018-06-16T23:51:47.833Z,98959.80
2018-06-16T23:54:27.196Z,98958.24
2018-06-16T23:57:03.284Z,98958.71
2018-06-16T23:59:32.512Z,98955.03
